sensor_id;sensor_type;location;lat;lon;timestamp;P1;durP1;ratioP1;P2;durP2;ratioP2
22737;SDS011;11536;50.860;4.286;2023-03-31T00:01:23;10.52;;;1.63;;
22737;SDS011;11536;50.860;4.286;2023-03-31T00:03:49;7.80;;;1.70;;
22737;SDS011;11536;50.860;4.286;2023-03-31T00:06:15;9.68;;;2.10;;
22737;SDS011;11536;50.860;4.286;2023-03-31T00:08:43;10.52;;;1.50;;
22737;SDS011;11536;50.860;4.286;2023-03-31T00:11:10;9.18;;;1.30;;
22737;SDS011;11536;50.860;4.286;2023-03-31T00:13:36;8.02;;;1.30;;
22737;SDS011;11536;50.860;4.286;2023-03-31T00:16:03;8.65;;;1.08;;
22737;SDS011;11536;50.860;4.286;2023-03-31T00:18:31;7.82;;;1.25;;
22737;SDS011;11536;50.860;4.286;2023-03-31T00:21:11;8.93;;;1.40;;
22737;SDS011;11536;50.860;4.286;2023-03-31T00:23:42;7.75;;;1.20;;
22737;SDS011;11536;50.860;4.286;2023-03-31T00:26:13;8.05;;;1.42;;
22737;SDS011;11536;50.860;4.286;2023-03-31T00:28:39;14.40;;;1.40;;
22737;SDS011;11536;50.860;4.286;2023-03-31T00:31:05;8.68;;;1.48;;
22737;SDS011;11536;50.860;4.286;2023-03-31T00:33:30;9.00;;;1.17;;
22737;SDS011;11536;50.860;4.286;2023-03-31T00:35:56;4.95;;;0.80;;
22737;SDS011;11536;50.860;4.286;2023-03-31T00:38:26;7.40;;;0.90;;
22737;SDS011;11536;50.860;4.286;2023-03-31T00:40:53;6.50;;;1.00;;
22737;SDS011;11536;50.860;4.286;2023-03-31T00:43:35;7.32;;;1.17;;
22737;SDS011;11536;50.860;4.286;2023-03-31T00:46:18;5.45;;;0.60;;
22737;SDS011;11536;50.860;4.286;2023-03-31T00:48:51;7.22;;;1.05;;
22737;SDS011;11536;50.860;4.286;2023-03-31T00:51:21;5.22;;;0.75;;
22737;SDS011;11536;50.860;4.286;2023-03-31T00:53:55;8.23;;;1.35;;
22737;SDS011;11536;50.860;4.286;2023-03-31T00:56:27;4.78;;;0.75;;
22737;SDS011;11536;50.860;4.286;2023-03-31T00:58:56;8.10;;;1.05;;
22737;SDS011;11536;50.860;4.286;2023-03-31T01:01:26;6.50;;;1.20;;
22737;SDS011;11536;50.860;4.286;2023-03-31T01:03:52;8.38;;;1.33;;
22737;SDS011;11536;50.860;4.286;2023-03-31T01:06:18;8.95;;;1.77;;
22737;SDS011;11536;50.860;4.286;2023-03-31T01:08:44;6.38;;;1.17;;
22737;SDS011;11536;50.860;4.286;2023-03-31T01:11:13;11.98;;;1.77;;
22737;SDS011;11536;50.860;4.286;2023-03-31T01:13:42;6.97;;;1.23;;
22737;SDS011;11536;50.860;4.286;2023-03-31T01:16:08;8.95;;;1.40;;
22737;SDS011;11536;50.860;4.286;2023-03-31T01:18:34;8.90;;;1.42;;
22737;SDS011;11536;50.860;4.286;2023-03-31T01:21:16;8.93;;;1.30;;
22737;SDS011;11536;50.860;4.286;2023-03-31T01:45:53;8.98;;;1.08;;
22737;SDS011;11536;50.860;4.286;2023-03-31T01:49:07;9.23;;;1.23;;
22737;SDS011;11536;50.860;4.286;2023-03-31T01:51:17;4.47;;;1.13;;
22737;SDS011;11536;50.860;4.286;2023-03-31T01:53:54;8.80;;;0.60;;
22737;SDS011;11536;50.860;4.286;2023-03-31T01:56:33;5.22;;;0.80;;
22737;SDS011;11536;50.860;4.286;2023-03-31T01:59:13;4.50;;;0.60;;
22737;SDS011;11536;50.860;4.286;2023-03-31T02:01:56;5.30;;;0.65;;
22737;SDS011;11536;50.860;4.286;2023-03-31T02:04:27;9.18;;;1.40;;
22737;SDS011;11536;50.860;4.286;2023-03-31T02:06:58;6.10;;;1.10;;
22737;SDS011;11536;50.860;4.286;2023-03-31T02:09:29;5.85;;;0.80;;
22737;SDS011;11536;50.860;4.286;2023-03-31T02:11:59;5.50;;;0.85;;
22737;SDS011;11536;50.860;4.286;2023-03-31T02:14:29;5.05;;;0.80;;
22737;SDS011;11536;50.860;4.286;2023-03-31T02:16:57;7.90;;;0.77;;
22737;SDS011;11536;50.860;4.286;2023-03-31T02:19:27;7.03;;;0.70;;
22737;SDS011;11536;50.860;4.286;2023-03-31T02:21:56;9.60;;;1.25;;
22737;SDS011;11536;50.860;4.286;2023-03-31T02:24:23;2.58;;;0.55;;
22737;SDS011;11536;50.860;4.286;2023-03-31T02:26:52;3.55;;;0.60;;
22737;SDS011;11536;50.860;4.286;2023-03-31T02:29:27;6.20;;;0.60;;
22737;SDS011;11536;50.860;4.286;2023-03-31T02:32:10;4.30;;;0.73;;
22737;SDS011;11536;50.860;4.286;2023-03-31T02:35:10;7.28;;;0.70;;
22737;SDS011;11536;50.860;4.286;2023-03-31T02:37:38;4.20;;;0.88;;
22737;SDS011;11536;50.860;4.286;2023-03-31T02:40:06;1.17;;;0.30;;
22737;SDS011;11536;50.860;4.286;2023-03-31T02:42:36;5.95;;;0.63;;
22737;SDS011;11536;50.860;4.286;2023-03-31T02:45:04;4.45;;;0.75;;
22737;SDS011;11536;50.860;4.286;2023-03-31T02:47:32;2.22;;;0.32;;
22737;SDS011;11536;50.860;4.286;2023-03-31T02:49:58;2.90;;;0.50;;
22737;SDS011;11536;50.860;4.286;2023-03-31T02:55:20;5.47;;;0.70;;
22737;SDS011;11536;50.860;4.286;2023-03-31T02:58:11;4.35;;;0.55;;
22737;SDS011;11536;50.860;4.286;2023-03-31T03:03:56;6.75;;;1.17;;
22737;SDS011;11536;50.860;4.286;2023-03-31T03:16:51;5.57;;;0.60;;
22737;SDS011;11536;50.860;4.286;2023-03-31T03:19:22;3.47;;;0.52;;
22737;SDS011;11536;50.860;4.286;2023-03-31T03:21:48;6.60;;;1.02;;
22737;SDS011;11536;50.860;4.286;2023-03-31T03:24:14;3.80;;;0.40;;
22737;SDS011;11536;50.860;4.286;2023-03-31T03:26:42;5.68;;;1.25;;
22737;SDS011;11536;50.860;4.286;2023-03-31T03:29:08;6.20;;;0.80;;
22737;SDS011;11536;50.860;4.286;2023-03-31T03:31:37;4.78;;;1.05;;
22737;SDS011;11536;50.860;4.286;2023-03-31T03:34:03;3.05;;;0.38;;
22737;SDS011;11536;50.860;4.286;2023-03-31T03:36:28;2.72;;;0.35;;
22737;SDS011;11536;50.860;4.286;2023-03-31T03:38:54;1.63;;;0.40;;
22737;SDS011;11536;50.860;4.286;2023-03-31T03:41:20;1.60;;;0.43;;
22737;SDS011;11536;50.860;4.286;2023-03-31T03:43:45;2.13;;;0.52;;
22737;SDS011;11536;50.860;4.286;2023-03-31T03:46:11;4.57;;;0.40;;
22737;SDS011;11536;50.860;4.286;2023-03-31T03:48:36;1.10;;;0.10;;
22737;SDS011;11536;50.860;4.286;2023-03-31T03:51:02;1.65;;;0.20;;
22737;SDS011;11536;50.860;4.286;2023-03-31T03:53:28;0.63;;;0.10;;
22737;SDS011;11536;50.860;4.286;2023-03-31T03:55:54;3.60;;;0.20;;
22737;SDS011;11536;50.860;4.286;2023-03-31T03:58:19;1.15;;;0.10;;
22737;SDS011;11536;50.860;4.286;2023-03-31T04:00:45;2.90;;;0.10;;
22737;SDS011;11536;50.860;4.286;2023-03-31T04:03:11;1.45;;;0.10;;
22737;SDS011;11536;50.860;4.286;2023-03-31T04:05:37;2.22;;;0.00;;
22737;SDS011;11536;50.860;4.286;2023-03-31T04:08:03;0.43;;;0.08;;
22737;SDS011;11536;50.860;4.286;2023-03-31T04:10:30;2.42;;;0.43;;
22737;SDS011;11536;50.860;4.286;2023-03-31T04:12:55;4.25;;;0.20;;
22737;SDS011;11536;50.860;4.286;2023-03-31T04:15:21;0.40;;;0.00;;
22737;SDS011;11536;50.860;4.286;2023-03-31T04:17:47;0.15;;;0.00;;
22737;SDS011;11536;50.860;4.286;2023-03-31T04:20:14;1.02;;;0.10;;
22737;SDS011;11536;50.860;4.286;2023-03-31T04:22:41;0.63;;;0.20;;
22737;SDS011;11536;50.860;4.286;2023-03-31T04:25:11;3.13;;;0.20;;
22737;SDS011;11536;50.860;4.286;2023-03-31T04:27:47;2.10;;;0.30;;
22737;SDS011;11536;50.860;4.286;2023-03-31T04:30:18;1.73;;;0.30;;
22737;SDS011;11536;50.860;4.286;2023-03-31T04:32:53;2.55;;;0.40;;
22737;SDS011;11536;50.860;4.286;2023-03-31T04:35:20;4.82;;;0.50;;
22737;SDS011;11536;50.860;4.286;2023-03-31T04:37:48;5.00;;;0.70;;
22737;SDS011;11536;50.860;4.286;2023-03-31T04:40:14;5.60;;;0.88;;
22737;SDS011;11536;50.860;4.286;2023-03-31T04:42:41;3.72;;;0.80;;
22737;SDS011;11536;50.860;4.286;2023-03-31T04:45:08;4.38;;;0.82;;
22737;SDS011;11536;50.860;4.286;2023-03-31T04:47:34;5.32;;;0.77;;
22737;SDS011;11536;50.860;4.286;2023-03-31T04:50:01;3.42;;;0.68;;
22737;SDS011;11536;50.860;4.286;2023-03-31T04:52:26;5.20;;;1.08;;
22737;SDS011;11536;50.860;4.286;2023-03-31T04:54:52;6.60;;;0.65;;
22737;SDS011;11536;50.860;4.286;2023-03-31T04:57:18;4.82;;;0.80;;
22737;SDS011;11536;50.860;4.286;2023-03-31T04:59:43;6.47;;;1.17;;
22737;SDS011;11536;50.860;4.286;2023-03-31T05:02:10;5.45;;;1.23;;
22737;SDS011;11536;50.860;4.286;2023-03-31T05:04:35;3.90;;;0.90;;
22737;SDS011;11536;50.860;4.286;2023-03-31T05:07:02;6.47;;;1.33;;
22737;SDS011;11536;50.860;4.286;2023-03-31T05:09:27;9.63;;;1.30;;
22737;SDS011;11536;50.860;4.286;2023-03-31T05:11:53;8.43;;;1.35;;
22737;SDS011;11536;50.860;4.286;2023-03-31T05:14:18;7.18;;;1.13;;
22737;SDS011;11536;50.860;4.286;2023-03-31T05:16:44;9.18;;;1.42;;
22737;SDS011;11536;50.860;4.286;2023-03-31T05:19:10;4.20;;;0.98;;
22737;SDS011;11536;50.860;4.286;2023-03-31T05:21:36;7.45;;;1.70;;
22737;SDS011;11536;50.860;4.286;2023-03-31T05:24:03;12.18;;;1.92;;
22737;SDS011;11536;50.860;4.286;2023-03-31T05:26:29;9.60;;;1.80;;
22737;SDS011;11536;50.860;4.286;2023-03-31T05:28:55;7.55;;;1.52;;
22737;SDS011;11536;50.860;4.286;2023-03-31T05:31:21;10.13;;;1.98;;
22737;SDS011;11536;50.860;4.286;2023-03-31T05:33:47;8.13;;;2.20;;
22737;SDS011;11536;50.860;4.286;2023-03-31T05:36:14;6.20;;;1.40;;
22737;SDS011;11536;50.860;4.286;2023-03-31T05:38:41;9.07;;;1.55;;
22737;SDS011;11536;50.860;4.286;2023-03-31T05:41:08;6.80;;;1.27;;
22737;SDS011;11536;50.860;4.286;2023-03-31T05:43:35;7.55;;;1.92;;
22737;SDS011;11536;50.860;4.286;2023-03-31T05:46:05;10.30;;;1.60;;
22737;SDS011;11536;50.860;4.286;2023-03-31T05:48:31;12.98;;;2.00;;
22737;SDS011;11536;50.860;4.286;2023-03-31T05:50:57;10.05;;;1.52;;
22737;SDS011;11536;50.860;4.286;2023-03-31T05:53:24;7.95;;;1.50;;
22737;SDS011;11536;50.860;4.286;2023-03-31T05:55:55;6.70;;;1.35;;
22737;SDS011;11536;50.860;4.286;2023-03-31T05:58:22;8.55;;;1.77;;
22737;SDS011;11536;50.860;4.286;2023-03-31T06:00:48;8.27;;;1.10;;
22737;SDS011;11536;50.860;4.286;2023-03-31T06:03:13;7.03;;;1.40;;
22737;SDS011;11536;50.860;4.286;2023-03-31T06:05:39;10.85;;;2.15;;
22737;SDS011;11536;50.860;4.286;2023-03-31T06:08:11;10.70;;;1.70;;
22737;SDS011;11536;50.860;4.286;2023-03-31T06:10:37;7.35;;;1.50;;
22737;SDS011;11536;50.860;4.286;2023-03-31T06:13:03;9.35;;;1.48;;
22737;SDS011;11536;50.860;4.286;2023-03-31T06:15:29;8.52;;;1.23;;
22737;SDS011;11536;50.860;4.286;2023-03-31T06:17:55;5.05;;;1.42;;
22737;SDS011;11536;50.860;4.286;2023-03-31T06:20:21;9.88;;;1.92;;
22737;SDS011;11536;50.860;4.286;2023-03-31T06:22:46;8.60;;;1.35;;
22737;SDS011;11536;50.860;4.286;2023-03-31T06:25:12;7.95;;;1.55;;
22737;SDS011;11536;50.860;4.286;2023-03-31T06:27:37;8.95;;;1.48;;
22737;SDS011;11536;50.860;4.286;2023-03-31T06:30:03;5.00;;;1.40;;
22737;SDS011;11536;50.860;4.286;2023-03-31T06:32:29;6.55;;;1.40;;
22737;SDS011;11536;50.860;4.286;2023-03-31T06:34:55;8.63;;;2.15;;
22737;SDS011;11536;50.860;4.286;2023-03-31T06:37:20;7.93;;;1.50;;
22737;SDS011;11536;50.860;4.286;2023-03-31T06:39:46;7.10;;;1.75;;
22737;SDS011;11536;50.860;4.286;2023-03-31T06:42:13;9.18;;;1.95;;
22737;SDS011;11536;50.860;4.286;2023-03-31T06:44:39;9.63;;;1.67;;
22737;SDS011;11536;50.860;4.286;2023-03-31T06:47:04;12.77;;;1.73;;
22737;SDS011;11536;50.860;4.286;2023-03-31T06:49:30;9.10;;;2.03;;
22737;SDS011;11536;50.860;4.286;2023-03-31T06:51:56;10.35;;;1.73;;
22737;SDS011;11536;50.860;4.286;2023-03-31T06:54:21;15.55;;;2.03;;
22737;SDS011;11536;50.860;4.286;2023-03-31T06:56:47;8.18;;;2.00;;
22737;SDS011;11536;50.860;4.286;2023-03-31T06:59:13;11.70;;;2.20;;
22737;SDS011;11536;50.860;4.286;2023-03-31T07:01:38;8.35;;;1.92;;
22737;SDS011;11536;50.860;4.286;2023-03-31T07:04:06;10.65;;;2.25;;
22737;SDS011;11536;50.860;4.286;2023-03-31T07:06:31;12.07;;;1.75;;
22737;SDS011;11536;50.860;4.286;2023-03-31T07:08:58;7.88;;;1.63;;
22737;SDS011;11536;50.860;4.286;2023-03-31T07:11:23;12.60;;;2.08;;
22737;SDS011;11536;50.860;4.286;2023-03-31T07:13:49;11.45;;;1.65;;
22737;SDS011;11536;50.860;4.286;2023-03-31T07:16:14;12.98;;;1.88;;
22737;SDS011;11536;50.860;4.286;2023-03-31T07:18:40;12.75;;;1.83;;
22737;SDS011;11536;50.860;4.286;2023-03-31T07:21:06;11.90;;;2.25;;
22737;SDS011;11536;50.860;4.286;2023-03-31T07:23:33;9.75;;;1.45;;
22737;SDS011;11536;50.860;4.286;2023-03-31T07:25:59;11.20;;;1.85;;
22737;SDS011;11536;50.860;4.286;2023-03-31T07:28:26;10.95;;;1.45;;
22737;SDS011;11536;50.860;4.286;2023-03-31T07:30:53;8.10;;;1.08;;
22737;SDS011;11536;50.860;4.286;2023-03-31T07:33:18;7.13;;;1.33;;
22737;SDS011;11536;50.860;4.286;2023-03-31T07:35:44;14.88;;;1.88;;
22737;SDS011;11536;50.860;4.286;2023-03-31T07:38:10;15.13;;;1.58;;
22737;SDS011;11536;50.860;4.286;2023-03-31T07:40:37;6.82;;;1.02;;
22737;SDS011;11536;50.860;4.286;2023-03-31T07:43:03;10.77;;;1.30;;
22737;SDS011;11536;50.860;4.286;2023-03-31T07:45:30;9.25;;;1.35;;
22737;SDS011;11536;50.860;4.286;2023-03-31T07:47:56;13.75;;;1.80;;
22737;SDS011;11536;50.860;4.286;2023-03-31T07:50:22;12.15;;;1.55;;
22737;SDS011;11536;50.860;4.286;2023-03-31T07:52:47;11.60;;;1.65;;
22737;SDS011;11536;50.860;4.286;2023-03-31T07:55:14;12.23;;;1.70;;
22737;SDS011;11536;50.860;4.286;2023-03-31T07:57:40;10.27;;;1.20;;
22737;SDS011;11536;50.860;4.286;2023-03-31T08:00:08;12.63;;;2.20;;
22737;SDS011;11536;50.860;4.286;2023-03-31T08:02:36;12.07;;;1.75;;
22737;SDS011;11536;50.860;4.286;2023-03-31T08:05:02;14.60;;;1.92;;
22737;SDS011;11536;50.860;4.286;2023-03-31T08:07:31;12.60;;;1.67;;
22737;SDS011;11536;50.860;4.286;2023-03-31T08:09:58;7.70;;;0.90;;
22737;SDS011;11536;50.860;4.286;2023-03-31T08:12:24;5.35;;;1.17;;
22737;SDS011;11536;50.860;4.286;2023-03-31T08:14:50;10.05;;;1.50;;
22737;SDS011;11536;50.860;4.286;2023-03-31T08:17:15;13.88;;;1.52;;
22737;SDS011;11536;50.860;4.286;2023-03-31T08:19:41;10.73;;;1.40;;
22737;SDS011;11536;50.860;4.286;2023-03-31T08:22:06;12.02;;;2.53;;
22737;SDS011;11536;50.860;4.286;2023-03-31T08:24:32;9.05;;;1.50;;
22737;SDS011;11536;50.860;4.286;2023-03-31T08:26:58;10.50;;;1.02;;
22737;SDS011;11536;50.860;4.286;2023-03-31T08:29:23;8.55;;;1.38;;
22737;SDS011;11536;50.860;4.286;2023-03-31T08:31:49;6.82;;;0.90;;
22737;SDS011;11536;50.860;4.286;2023-03-31T08:34:15;12.30;;;1.70;;
22737;SDS011;11536;50.860;4.286;2023-03-31T08:36:40;7.63;;;1.02;;
22737;SDS011;11536;50.860;4.286;2023-03-31T08:39:06;9.48;;;1.30;;
22737;SDS011;11536;50.860;4.286;2023-03-31T08:41:35;9.48;;;1.38;;
22737;SDS011;11536;50.860;4.286;2023-03-31T08:47:24;9.95;;;1.70;;
22737;SDS011;11536;50.860;4.286;2023-03-31T08:49:54;6.55;;;1.10;;
22737;SDS011;11536;50.860;4.286;2023-03-31T08:55:09;8.10;;;1.17;;
22737;SDS011;11536;50.860;4.286;2023-03-31T08:57:39;14.15;;;1.83;;
22737;SDS011;11536;50.860;4.286;2023-03-31T09:00:15;9.05;;;1.38;;
22737;SDS011;11536;50.860;4.286;2023-03-31T09:03:04;8.15;;;1.27;;
22737;SDS011;11536;50.860;4.286;2023-03-31T09:05:45;13.15;;;1.08;;
22737;SDS011;11536;50.860;4.286;2023-03-31T09:11:08;10.55;;;1.55;;
22737;SDS011;11536;50.860;4.286;2023-03-31T09:19:13;11.55;;;1.50;;
22737;SDS011;11536;50.860;4.286;2023-03-31T09:21:48;13.40;;;1.67;;
22737;SDS011;11536;50.860;4.286;2023-03-31T09:24:18;12.40;;;1.42;;
22737;SDS011;11536;50.860;4.286;2023-03-31T09:27:01;11.32;;;1.75;;
22737;SDS011;11536;50.860;4.286;2023-03-31T09:29:39;13.45;;;2.25;;
22737;SDS011;11536;50.860;4.286;2023-03-31T09:32:18;9.15;;;1.67;;
22737;SDS011;11536;50.860;4.286;2023-03-31T09:34:44;9.98;;;1.50;;
22737;SDS011;11536;50.860;4.286;2023-03-31T09:37:12;12.07;;;2.08;;
22737;SDS011;11536;50.860;4.286;2023-03-31T09:39:38;11.00;;;1.63;;
22737;SDS011;11536;50.860;4.286;2023-03-31T09:42:04;13.30;;;1.65;;
22737;SDS011;11536;50.860;4.286;2023-03-31T09:47:03;12.02;;;1.50;;
22737;SDS011;11536;50.860;4.286;2023-03-31T09:49:44;13.68;;;2.35;;
22737;SDS011;11536;50.860;4.286;2023-03-31T09:52:24;15.48;;;2.67;;
22737;SDS011;11536;50.860;4.286;2023-03-31T09:55:00;11.38;;;1.73;;
22737;SDS011;11536;50.860;4.286;2023-03-31T09:57:30;11.65;;;2.10;;
22737;SDS011;11536;50.860;4.286;2023-03-31T10:08:11;11.77;;;1.65;;
22737;SDS011;11536;50.860;4.286;2023-03-31T10:10:48;12.82;;;1.90;;
22737;SDS011;11536;50.860;4.286;2023-03-31T10:13:27;16.08;;;2.10;;
22737;SDS011;11536;50.860;4.286;2023-03-31T10:16:04;8.57;;;1.50;;
22737;SDS011;11536;50.860;4.286;2023-03-31T10:18:36;8.93;;;1.60;;
22737;SDS011;11536;50.860;4.286;2023-03-31T10:21:05;14.10;;;1.80;;
22737;SDS011;11536;50.860;4.286;2023-03-31T10:23:40;10.02;;;1.60;;
22737;SDS011;11536;50.860;4.286;2023-03-31T10:26:11;13.77;;;1.98;;
22737;SDS011;11536;50.860;4.286;2023-03-31T10:28:41;15.77;;;1.77;;
22737;SDS011;11536;50.860;4.286;2023-03-31T10:31:19;10.15;;;2.08;;
22737;SDS011;11536;50.860;4.286;2023-03-31T10:33:49;13.57;;;2.30;;
22737;SDS011;11536;50.860;4.286;2023-03-31T10:36:21;14.50;;;1.98;;
22737;SDS011;11536;50.860;4.286;2023-03-31T10:38:51;8.88;;;1.30;;
22737;SDS011;11536;50.860;4.286;2023-03-31T10:41:28;13.45;;;1.50;;
22737;SDS011;11536;50.860;4.286;2023-03-31T10:43:57;11.23;;;1.42;;
22737;SDS011;11536;50.860;4.286;2023-03-31T10:49:26;12.25;;;1.65;;
22737;SDS011;11536;50.860;4.286;2023-03-31T10:52:01;6.65;;;1.30;;
22737;SDS011;11536;50.860;4.286;2023-03-31T10:54:27;4.20;;;0.77;;
22737;SDS011;11536;50.860;4.286;2023-03-31T10:57:02;10.15;;;1.25;;
22737;SDS011;11536;50.860;4.286;2023-03-31T11:22:37;5.97;;;0.80;;
22737;SDS011;11536;50.860;4.286;2023-03-31T11:31:12;7.38;;;1.00;;
22737;SDS011;11536;50.860;4.286;2023-03-31T11:36:50;10.00;;;1.17;;
22737;SDS011;11536;50.860;4.286;2023-03-31T11:42:18;5.25;;;0.85;;
22737;SDS011;11536;50.860;4.286;2023-03-31T11:44:48;11.05;;;1.15;;
22737;SDS011;11536;50.860;4.286;2023-03-31T11:47:27;5.55;;;0.65;;
22737;SDS011;11536;50.860;4.286;2023-03-31T11:52:39;5.97;;;0.93;;
22737;SDS011;11536;50.860;4.286;2023-03-31T12:00:42;8.07;;;1.38;;
22737;SDS011;11536;50.860;4.286;2023-03-31T12:03:12;12.63;;;1.17;;
22737;SDS011;11536;50.860;4.286;2023-03-31T12:05:50;7.82;;;0.88;;
22737;SDS011;11536;50.860;4.286;2023-03-31T12:08:40;6.10;;;0.90;;
22737;SDS011;11536;50.860;4.286;2023-03-31T12:13:45;7.35;;;1.25;;
22737;SDS011;11536;50.860;4.286;2023-03-31T12:21:54;6.47;;;0.90;;
22737;SDS011;11536;50.860;4.286;2023-03-31T12:24:26;4.93;;;0.70;;
22737;SDS011;11536;50.860;4.286;2023-03-31T12:30:02;6.88;;;0.65;;
22737;SDS011;11536;50.860;4.286;2023-03-31T12:32:35;5.53;;;1.13;;
22737;SDS011;11536;50.860;4.286;2023-03-31T12:40:17;6.50;;;0.88;;
22737;SDS011;11536;50.860;4.286;2023-03-31T12:55:07;4.53;;;0.70;;
22737;SDS011;11536;50.860;4.286;2023-03-31T13:03:45;1.70;;;0.55;;
22737;SDS011;11536;50.860;4.286;2023-03-31T13:09:03;3.15;;;0.38;;
22737;SDS011;11536;50.860;4.286;2023-03-31T13:11:36;1.83;;;0.20;;
22737;SDS011;11536;50.860;4.286;2023-03-31T13:16:37;0.68;;;0.10;;
22737;SDS011;11536;50.860;4.286;2023-03-31T13:19:03;1.48;;;0.15;;
22737;SDS011;11536;50.860;4.286;2023-03-31T13:21:29;0.45;;;0.10;;
22737;SDS011;11536;50.860;4.286;2023-03-31T13:24:01;0.45;;;0.05;;
22737;SDS011;11536;50.860;4.286;2023-03-31T13:29:43;0.98;;;0.10;;
22737;SDS011;11536;50.860;4.286;2023-03-31T13:32:25;1.48;;;0.20;;
22737;SDS011;11536;50.860;4.286;2023-03-31T13:35:05;0.17;;;0.03;;
22737;SDS011;11536;50.860;4.286;2023-03-31T13:37:51;2.78;;;0.20;;
22737;SDS011;11536;50.860;4.286;2023-03-31T13:40:45;0.52;;;0.10;;
22737;SDS011;11536;50.860;4.286;2023-03-31T13:43:39;0.30;;;0.10;;
22737;SDS011;11536;50.860;4.286;2023-03-31T13:46:32;0.70;;;0.00;;
22737;SDS011;11536;50.860;4.286;2023-03-31T14:04:07;0.80;;;0.20;;
22737;SDS011;11536;50.860;4.286;2023-03-31T14:06:46;2.47;;;0.20;;
22737;SDS011;11536;50.860;4.286;2023-03-31T14:12:17;1.23;;;0.10;;
22737;SDS011;11536;50.860;4.286;2023-03-31T14:14:53;2.75;;;0.22;;
22737;SDS011;11536;50.860;4.286;2023-03-31T14:17:20;1.20;;;0.10;;
22737;SDS011;11536;50.860;4.286;2023-03-31T14:20:37;1.48;;;0.20;;
22737;SDS011;11536;50.860;4.286;2023-03-31T14:23:30;0.68;;;0.10;;
22737;SDS011;11536;50.860;4.286;2023-03-31T14:37:17;2.15;;;0.40;;
22737;SDS011;11536;50.860;4.286;2023-03-31T14:39:52;1.38;;;0.10;;
22737;SDS011;11536;50.860;4.286;2023-03-31T14:42:37;3.20;;;0.30;;
22737;SDS011;11536;50.860;4.286;2023-03-31T14:45:05;0.83;;;0.17;;
22737;SDS011;11536;50.860;4.286;2023-03-31T14:47:56;0.30;;;0.10;;
22737;SDS011;11536;50.860;4.286;2023-03-31T14:50:32;1.05;;;0.35;;
22737;SDS011;11536;50.860;4.286;2023-03-31T14:52:59;0.95;;;0.10;;
22737;SDS011;11536;50.860;4.286;2023-03-31T14:55:27;0.50;;;0.10;;
22737;SDS011;11536;50.860;4.286;2023-03-31T14:57:55;1.77;;;0.13;;
22737;SDS011;11536;50.860;4.286;2023-03-31T15:00:25;0.73;;;0.17;;
22737;SDS011;11536;50.860;4.286;2023-03-31T15:03:01;0.90;;;0.20;;
22737;SDS011;11536;50.860;4.286;2023-03-31T15:05:37;5.35;;;0.30;;
22737;SDS011;11536;50.860;4.286;2023-03-31T15:08:21;1.60;;;0.20;;
22737;SDS011;11536;50.860;4.286;2023-03-31T15:10:48;1.52;;;0.20;;
22737;SDS011;11536;50.860;4.286;2023-03-31T15:13:18;0.93;;;0.15;;
22737;SDS011;11536;50.860;4.286;2023-03-31T15:19:10;1.55;;;0.30;;
22737;SDS011;11536;50.860;4.286;2023-03-31T15:24:43;2.45;;;0.20;;
22737;SDS011;11536;50.860;4.286;2023-03-31T15:27:38;2.25;;;0.25;;
22737;SDS011;11536;50.860;4.286;2023-03-31T15:30:34;3.33;;;0.25;;
22737;SDS011;11536;50.860;4.286;2023-03-31T15:35:59;3.05;;;0.38;;
22737;SDS011;11536;50.860;4.286;2023-03-31T15:39:04;3.03;;;0.47;;
22737;SDS011;11536;50.860;4.286;2023-03-31T15:41:47;1.50;;;0.10;;
22737;SDS011;11536;50.860;4.286;2023-03-31T15:44:27;2.65;;;0.30;;
22737;SDS011;11536;50.860;4.286;2023-03-31T15:46:59;3.95;;;0.30;;
22737;SDS011;11536;50.860;4.286;2023-03-31T15:49:32;2.13;;;0.20;;
22737;SDS011;11536;50.860;4.286;2023-03-31T15:51:59;3.55;;;0.40;;
22737;SDS011;11536;50.860;4.286;2023-03-31T15:54:33;3.58;;;0.50;;
22737;SDS011;11536;50.860;4.286;2023-03-31T15:57:02;3.20;;;0.50;;
22737;SDS011;11536;50.860;4.286;2023-03-31T15:59:30;1.75;;;0.50;;
22737;SDS011;11536;50.860;4.286;2023-03-31T16:02:10;1.13;;;0.38;;
22737;SDS011;11536;50.860;4.286;2023-03-31T16:04:38;4.82;;;0.55;;
22737;SDS011;11536;50.860;4.286;2023-03-31T16:07:05;2.00;;;0.50;;
22737;SDS011;11536;50.860;4.286;2023-03-31T16:14:53;6.72;;;0.70;;
22737;SDS011;11536;50.860;4.286;2023-03-31T16:17:34;4.43;;;0.50;;
22737;SDS011;11536;50.860;4.286;2023-03-31T16:22:35;3.22;;;0.60;;
22737;SDS011;11536;50.860;4.286;2023-03-31T16:25:07;4.45;;;0.70;;
22737;SDS011;11536;50.860;4.286;2023-03-31T16:27:42;7.95;;;0.70;;
22737;SDS011;11536;50.860;4.286;2023-03-31T16:30:15;5.22;;;0.82;;
22737;SDS011;11536;50.860;4.286;2023-03-31T16:32:58;6.15;;;0.55;;
22737;SDS011;11536;50.860;4.286;2023-03-31T16:35:44;4.13;;;0.60;;
22737;SDS011;11536;50.860;4.286;2023-03-31T16:38:15;3.45;;;0.75;;
22737;SDS011;11536;50.860;4.286;2023-03-31T16:40:42;6.32;;;0.98;;
22737;SDS011;11536;50.860;4.286;2023-03-31T16:43:11;6.53;;;0.80;;
22737;SDS011;11536;50.860;4.286;2023-03-31T16:45:43;8.02;;;0.85;;
22737;SDS011;11536;50.860;4.286;2023-03-31T16:48:11;4.25;;;0.60;;
22737;SDS011;11536;50.860;4.286;2023-03-31T16:50:37;5.40;;;0.90;;
22737;SDS011;11536;50.860;4.286;2023-03-31T16:53:04;5.55;;;1.00;;
22737;SDS011;11536;50.860;4.286;2023-03-31T16:55:30;7.20;;;0.70;;
22737;SDS011;11536;50.860;4.286;2023-03-31T16:57:56;7.43;;;0.90;;
22737;SDS011;11536;50.860;4.286;2023-03-31T17:00:26;4.70;;;0.70;;
22737;SDS011;11536;50.860;4.286;2023-03-31T17:03:02;7.90;;;0.90;;
22737;SDS011;11536;50.860;4.286;2023-03-31T17:05:28;1.63;;;0.52;;
22737;SDS011;11536;50.860;4.286;2023-03-31T17:07:57;4.22;;;0.80;;
22737;SDS011;11536;50.860;4.286;2023-03-31T17:10:24;6.57;;;0.77;;
22737;SDS011;11536;50.860;4.286;2023-03-31T17:12:50;6.55;;;0.95;;
22737;SDS011;11536;50.860;4.286;2023-03-31T17:15:16;6.75;;;0.63;;
22737;SDS011;11536;50.860;4.286;2023-03-31T17:17:42;7.55;;;1.20;;
22737;SDS011;11536;50.860;4.286;2023-03-31T17:20:07;4.75;;;0.65;;
22737;SDS011;11536;50.860;4.286;2023-03-31T17:22:36;4.50;;;0.80;;
22737;SDS011;11536;50.860;4.286;2023-03-31T17:25:03;8.95;;;0.90;;
22737;SDS011;11536;50.860;4.286;2023-03-31T17:27:29;6.07;;;1.08;;
22737;SDS011;11536;50.860;4.286;2023-03-31T17:29:56;4.78;;;0.90;;
22737;SDS011;11536;50.860;4.286;2023-03-31T17:32:22;5.32;;;1.25;;
22737;SDS011;11536;50.860;4.286;2023-03-31T17:34:47;7.35;;;1.08;;
22737;SDS011;11536;50.860;4.286;2023-03-31T17:37:14;5.32;;;0.90;;
22737;SDS011;11536;50.860;4.286;2023-03-31T17:39:41;3.75;;;0.63;;
22737;SDS011;11536;50.860;4.286;2023-03-31T17:42:07;6.20;;;0.80;;
22737;SDS011;11536;50.860;4.286;2023-03-31T17:44:33;4.63;;;1.05;;
22737;SDS011;11536;50.860;4.286;2023-03-31T17:46:59;12.88;;;1.50;;
22737;SDS011;11536;50.860;4.286;2023-03-31T17:49:25;6.30;;;1.30;;
22737;SDS011;11536;50.860;4.286;2023-03-31T17:51:51;8.20;;;1.05;;
22737;SDS011;11536;50.860;4.286;2023-03-31T17:54:17;7.72;;;1.30;;
22737;SDS011;11536;50.860;4.286;2023-03-31T17:56:43;7.72;;;1.33;;
22737;SDS011;11536;50.860;4.286;2023-03-31T17:59:09;7.18;;;1.00;;
22737;SDS011;11536;50.860;4.286;2023-03-31T18:01:35;10.23;;;1.20;;
22737;SDS011;11536;50.860;4.286;2023-03-31T18:04:01;8.10;;;1.42;;
22737;SDS011;11536;50.860;4.286;2023-03-31T18:06:27;10.07;;;1.73;;
22737;SDS011;11536;50.860;4.286;2023-03-31T18:08:54;8.93;;;1.45;;
22737;SDS011;11536;50.860;4.286;2023-03-31T18:11:21;7.80;;;1.00;;
22737;SDS011;11536;50.860;4.286;2023-03-31T18:13:47;7.13;;;1.63;;
22737;SDS011;11536;50.860;4.286;2023-03-31T18:16:13;12.90;;;1.58;;
22737;SDS011;11536;50.860;4.286;2023-03-31T18:18:39;9.68;;;1.33;;
22737;SDS011;11536;50.860;4.286;2023-03-31T18:21:06;11.70;;;1.95;;
22737;SDS011;11536;50.860;4.286;2023-03-31T18:23:33;10.75;;;1.30;;